sensor_id;sensor_type;location;lat;lon;timestamp;pressure;altitude;pressure_sealevel;temperature;humidity
52319;BME280;38258;51.148;14.068;2023-01-30T00:00:55;98318.34;;;-3.93;100.00
52319;BME280;38258;51.148;14.068;2023-01-30T00:03:23;98349.63;;;-3.71;100.00
52319;BME280;38258;51.148;14.068;2023-01-30T00:05:51;98321.38;;;-3.76;100.00
52319;BME280;38258;51.148;14.068;2023-01-30T00:08:18;98307.56;;;-3.81;100.00
52319;BME280;38258;51.148;14.068;2023-01-30T00:10:45;98322.22;;;-3.75;100.00
52319;BME280;38258;51.148;14.068;2023-01-30T00:13:13;98325.78;;;-3.70;100.00
52319;BME280;38258;51.148;14.068;2023-01-30T00:15:40;98318.25;;;-3.65;100.00
52319;BME280;38258;51.148;14.068;2023-01-30T00:18:06;98321.00;;;-3.58;100.00
52319;BME280;38258;51.148;14.068;2023-01-30T00:20:33;98301.97;;;-3.67;100.00
52319;BME280;38258;51.148;14.068;2023-01-30T00:23:01;98302.09;;;-3.64;100.00
52319;BME280;38258;51.148;14.068;2023-01-30T00:25:28;98251.81;;;-3.96;100.00
52319;BME280;38258;51.148;14.068;2023-01-30T00:27:58;98322.00;;;-3.52;100.00
52319;BME280;38258;51.148;14.068;2023-01-30T00:30:24;98322.00;;;-3.52;100.00
52319;BME280;38258;51.148;14.068;2023-01-30T00:32:53;98303.00;;;-3.62;100.00
52319;BME280;38258;51.148;14.068;2023-01-30T00:35:20;98309.34;;;-3.48;100.00
52319;BME280;38258;51.148;14.068;2023-01-30T00:37:46;98298.94;;;-3.54;100.00
52319;BME280;38258;51.148;14.068;2023-01-30T00:40:15;98235.81;;;-3.89;100.00
52319;BME280;38258;51.148;14.068;2023-01-30T00:42:42;98289.72;;;-3.47;100.00
52319;BME280;38258;51.148;14.068;2023-01-30T00:45:26;98267.53;;;-3.50;100.00
52319;BME280;38258;51.148;14.068;2023-01-30T00:48:11;98283.06;;;-3.42;100.00
52319;BME280;38258;51.148;14.068;2023-01-30T00:50:37;98268.53;;;-3.43;100.00
52319;BME280;38258;51.148;14.068;2023-01-30T00:53:14;98264.28;;;-3.43;100.00
52319;BME280;38258;51.148;14.068;2023-01-30T00:55:42;98262.75;;;-3.36;100.00
52319;BME280;38258;51.148;14.068;2023-01-30T00:58:10;98269.59;;;-3.35;100.00
52319;BME280;38258;51.148;14.068;2023-01-30T01:00:37;98213.53;;;-3.61;100.00
52319;BME280;38258;51.148;14.068;2023-01-30T01:03:05;98264.53;;;-3.33;100.00
52319;BME280;38258;51.148;14.068;2023-01-30T01:05:31;98247.34;;;-3.37;100.00
52319;BME280;38258;51.148;14.068;2023-01-30T01:07:58;98252.75;;;-3.27;100.00
52319;BME280;38258;51.148;14.068;2023-01-30T01:10:25;98251.91;;;-3.25;100.00
52319;BME280;38258;51.148;14.068;2023-01-30T01:12:52;98251.03;;;-3.26;100.00
52319;BME280;38258;51.148;14.068;2023-01-30T01:15:20;98252.88;;;-3.20;100.00
52319;BME280;38258;51.148;14.068;2023-01-30T01:17:48;98248.72;;;-3.17;100.00
52319;BME280;38258;51.148;14.068;2023-01-30T01:20:15;98243.66;;;-3.15;100.00
52319;BME280;38258;51.148;14.068;2023-01-30T01:22:42;98238.47;;;-3.17;100.00
52319;BME280;38258;51.148;14.068;2023-01-30T01:25:09;98226.53;;;-3.18;100.00
52319;BME280;38258;51.148;14.068;2023-01-30T01:27:37;98229.09;;;-3.16;100.00
52319;BME280;38258;51.148;14.068;2023-01-30T01:30:07;98178.22;;;-3.41;100.00
52319;BME280;38258;51.148;14.068;2023-01-30T01:32:35;98219.81;;;-3.13;100.00
52319;BME280;38258;51.148;14.068;2023-01-30T01:35:01;98181.97;;;-3.26;100.00
52319;BME280;38258;51.148;14.068;2023-01-30T01:37:28;98178.09;;;-3.10;100.00
52319;BME280;38258;51.148;14.068;2023-01-30T01:39:55;98169.50;;;-3.12;100.00
52319;BME280;38258;51.148;14.068;2023-01-30T01:42:39;98079.75;;;-3.60;100.00
52319;BME280;38258;51.148;14.068;2023-01-30T01:45:15;98088.59;;;-3.45;100.00
52319;BME280;38258;51.148;14.068;2023-01-30T01:47:47;98146.44;;;-3.14;100.00
52319;BME280;38258;51.148;14.068;2023-01-30T01:50:19;98146.63;;;-3.06;100.00
52319;BME280;38258;51.148;14.068;2023-01-30T01:52:48;98157.78;;;-3.02;100.00
52319;BME280;38258;51.148;14.068;2023-01-30T01:55:17;98140.72;;;-3.02;100.00
52319;BME280;38258;51.148;14.068;2023-01-30T01:57:47;98120.19;;;-3.06;100.00
52319;BME280;38258;51.148;14.068;2023-01-30T02:00:17;98132.41;;;-2.93;100.00
52319;BME280;38258;51.148;14.068;2023-01-30T02:02:48;98126.53;;;-2.87;100.00
52319;BME280;38258;51.148;14.068;2023-01-30T02:05:18;98104.16;;;-2.97;100.00
52319;BME280;38258;51.148;14.068;2023-01-30T02:07:48;98080.97;;;-3.04;100.00
52319;BME280;38258;51.148;14.068;2023-01-30T02:10:19;98046.81;;;-3.07;100.00
52319;BME280;38258;51.148;14.068;2023-01-30T02:12:47;98073.75;;;-2.82;100.00
52319;BME280;38258;51.148;14.068;2023-01-30T02:15:18;98008.47;;;-3.04;100.00
52319;BME280;38258;51.148;14.068;2023-01-30T02:17:45;97991.06;;;-3.22;100.00
52319;BME280;38258;51.148;14.068;2023-01-30T02:20:19;98061.16;;;-2.71;100.00
52319;BME280;38258;51.148;14.068;2023-01-30T02:26:06;98018.06;;;-2.94;100.00
52319;BME280;38258;51.148;14.068;2023-01-30T02:31:40;98058.78;;;-2.62;100.00
52319;BME280;38258;51.148;14.068;2023-01-30T02:34:20;98056.28;;;-2.59;100.00
52319;BME280;38258;51.148;14.068;2023-01-30T02:37:00;98032.28;;;-2.62;100.00
52319;BME280;38258;51.148;14.068;2023-01-30T02:39:40;98024.53;;;-2.67;100.00
52319;BME280;38258;51.148;14.068;2023-01-30T02:42:13;98037.56;;;-2.54;100.00
52319;BME280;38258;51.148;14.068;2023-01-30T02:44:51;98050.41;;;-2.53;100.00
52319;BME280;38258;51.148;14.068;2023-01-30T02:47:24;98022.66;;;-2.77;100.00
52319;BME280;38258;51.148;14.068;2023-01-30T02:49:57;98062.41;;;-2.50;100.00
52319;BME280;38258;51.148;14.068;2023-01-30T02:52:26;98047.00;;;-2.52;100.00
52319;BME280;38258;51.148;14.068;2023-01-30T02:54:54;98023.63;;;-2.69;100.00
52319;BME280;38258;51.148;14.068;2023-01-30T02:57:23;98039.41;;;-2.47;100.00
52319;BME280;38258;51.148;14.068;2023-01-30T02:59:57;98034.34;;;-2.44;100.00
52319;BME280;38258;51.148;14.068;2023-01-30T03:02:35;98019.84;;;-2.42;100.00
52319;BME280;38258;51.148;14.068;2023-01-30T03:05:19;98011.28;;;-2.44;100.00
52319;BME280;38258;51.148;14.068;2023-01-30T03:07:49;97993.31;;;-2.46;100.00
52319;BME280;38258;51.148;14.068;2023-01-30T03:10:28;97988.31;;;-2.38;100.00
52319;BME280;38258;51.148;14.068;2023-01-30T03:13:10;97998.81;;;-2.24;100.00
52319;BME280;38258;51.148;14.068;2023-01-30T03:15:44;97998.00;;;-2.21;100.00
52319;BME280;38258;51.148;14.068;2023-01-30T03:18:17;97963.53;;;-2.39;100.00
52319;BME280;38258;51.148;14.068;2023-01-30T03:20:46;97956.78;;;-2.35;100.00
52319;BME280;38258;51.148;14.068;2023-01-30T03:23:13;97966.56;;;-2.11;100.00
52319;BME280;38258;51.148;14.068;2023-01-30T03:25:41;97957.97;;;-2.13;100.00
52319;BME280;38258;51.148;14.068;2023-01-30T03:28:09;97960.78;;;-1.97;100.00
52319;BME280;38258;51.148;14.068;2023-01-30T03:30:38;97915.22;;;-2.17;100.00
52319;BME280;38258;51.148;14.068;2023-01-30T03:33:08;97941.25;;;-1.88;100.00
52319;BME280;38258;51.148;14.068;2023-01-30T03:35:38;97917.38;;;-1.85;100.00
52319;BME280;38258;51.148;14.068;2023-01-30T03:38:05;97881.31;;;-1.99;100.00
52319;BME280;38258;51.148;14.068;2023-01-30T03:40:31;97902.06;;;-1.80;100.00
52319;BME280;38258;51.148;14.068;2023-01-30T03:42:58;97914.97;;;-1.73;100.00
52319;BME280;38258;51.148;14.068;2023-01-30T03:45:25;97874.50;;;-1.95;100.00
52319;BME280;38258;51.148;14.068;2023-01-30T03:47:52;97869.41;;;-1.94;100.00
52319;BME280;38258;51.148;14.068;2023-01-30T03:50:18;97873.09;;;-1.72;100.00
52319;BME280;38258;51.148;14.068;2023-01-30T03:52:46;97880.94;;;-1.62;100.00
52319;BME280;38258;51.148;14.068;2023-01-30T03:55:17;97886.91;;;-1.63;100.00
52319;BME280;38258;51.148;14.068;2023-01-30T03:57:43;97887.81;;;-1.58;100.00
52319;BME280;38258;51.148;14.068;2023-01-30T04:00:11;97887.84;;;-1.55;100.00
52319;BME280;38258;51.148;14.068;2023-01-30T04:02:46;97896.31;;;-1.61;100.00
52319;BME280;38258;51.148;14.068;2023-01-30T04:05:16;97909.19;;;-1.56;100.00
52319;BME280;38258;51.148;14.068;2023-01-30T04:07:50;97899.91;;;-1.46;100.00
52319;BME280;38258;51.148;14.068;2023-01-30T04:10:17;97888.81;;;-1.44;100.00
52319;BME280;38258;51.148;14.068;2023-01-30T04:12:44;97881.19;;;-1.37;100.00
52319;BME280;38258;51.148;14.068;2023-01-30T04:15:11;97851.03;;;-1.60;100.00
52319;BME280;38258;51.148;14.068;2023-01-30T04:18:07;97820.13;;;-1.69;100.00
52319;BME280;38258;51.148;14.068;2023-01-30T04:20:34;97862.44;;;-1.33;100.00
52319;BME280;38258;51.148;14.068;2023-01-30T04:23:02;97829.88;;;-1.37;100.00
52319;BME280;38258;51.148;14.068;2023-01-30T04:25:30;97866.72;;;-1.32;100.00
52319;BME280;38258;51.148;14.068;2023-01-30T04:27:58;97835.84;;;-1.40;100.00
52319;BME280;38258;51.148;14.068;2023-01-30T04:30:32;97841.13;;;-1.24;100.00
52319;BME280;38258;51.148;14.068;2023-01-30T04:33:22;97822.31;;;-1.26;100.00
52319;BME280;38258;51.148;14.068;2023-01-30T04:35:52;97795.63;;;-1.43;100.00
52319;BME280;38258;51.148;14.068;2023-01-30T04:38:21;97835.25;;;-1.12;100.00
52319;BME280;38258;51.148;14.068;2023-01-30T04:40:48;97817.28;;;-1.14;100.00
52319;BME280;38258;51.148;14.068;2023-01-30T04:43:15;97837.94;;;-1.00;100.00
52319;BME280;38258;51.148;14.068;2023-01-30T04:46:01;97819.09;;;-1.05;100.00
52319;BME280;38258;51.148;14.068;2023-01-30T04:48:28;97821.75;;;-0.94;100.00
52319;BME280;38258;51.148;14.068;2023-01-30T04:50:57;97793.34;;;-1.11;100.00
52319;BME280;38258;51.148;14.068;2023-01-30T04:53:26;97812.31;;;-0.95;100.00
52319;BME280;38258;51.148;14.068;2023-01-30T04:55:52;97808.91;;;-0.94;100.00
52319;BME280;38258;51.148;14.068;2023-01-30T04:58:19;97791.75;;;-0.97;100.00
52319;BME280;38258;51.148;14.068;2023-01-30T05:00:47;97764.31;;;-1.06;100.00
52319;BME280;38258;51.148;14.068;2023-01-30T05:03:13;97773.78;;;-0.97;100.00
52319;BME280;38258;51.148;14.068;2023-01-30T05:05:40;97772.97;;;-0.93;100.00
52319;BME280;38258;51.148;14.068;2023-01-30T05:08:07;97773.03;;;-0.80;100.00
52319;BME280;38258;51.148;14.068;2023-01-30T05:10:35;97762.75;;;-0.83;100.00
52319;BME280;38258;51.148;14.068;2023-01-30T05:13:02;97759.31;;;-0.87;100.00
52319;BME280;38258;51.148;14.068;2023-01-30T05:15:29;97756.00;;;-0.72;100.00
52319;BME280;38258;51.148;14.068;2023-01-30T05:17:55;97754.22;;;-0.81;100.00
52319;BME280;38258;51.148;14.068;2023-01-30T05:20:22;97743.94;;;-0.82;100.00
52319;BME280;38258;51.148;14.068;2023-01-30T05:22:49;97732.84;;;-0.77;100.00
52319;BME280;38258;51.148;14.068;2023-01-30T05:25:15;97688.16;;;-1.05;100.00
52319;BME280;38258;51.148;14.068;2023-01-30T05:27:43;97727.66;;;-0.84;100.00
52319;BME280;38258;51.148;14.068;2023-01-30T05:30:10;97736.25;;;-0.79;100.00
52319;BME280;38258;51.148;14.068;2023-01-30T05:32:37;97732.84;;;-0.78;100.00
52319;BME280;38258;51.148;14.068;2023-01-30T05:35:04;97732.88;;;-0.72;100.00
52319;BME280;38258;51.148;14.068;2023-01-30T05:37:31;97698.50;;;-0.97;100.00
52319;BME280;38258;51.148;14.068;2023-01-30T05:39:57;97716.50;;;-0.88;100.00
52319;BME280;38258;51.148;14.068;2023-01-30T05:42:24;97735.41;;;-0.78;100.00
52319;BME280;38258;51.148;14.068;2023-01-30T05:44:51;97743.94;;;-0.79;100.00
52319;BME280;38258;51.148;14.068;2023-01-30T05:47:18;97738.03;;;-0.69;100.00
52319;BME280;38258;51.148;14.068;2023-01-30T05:49:44;97729.47;;;-0.68;100.00
52319;BME280;38258;51.148;14.068;2023-01-30T05:52:11;97714.97;;;-0.60;100.00
52319;BME280;38258;51.148;14.068;2023-01-30T05:54:37;97707.22;;;-0.69;100.00
52319;BME280;38258;51.148;14.068;2023-01-30T05:57:04;97702.13;;;-0.58;100.00
52319;BME280;38258;51.148;14.068;2023-01-30T05:59:30;97700.44;;;-0.58;100.00
52319;BME280;38258;51.148;14.068;2023-01-30T06:01:58;97700.44;;;-0.58;100.00
52319;BME280;38258;51.148;14.068;2023-01-30T06:04:24;97676.38;;;-0.75;100.00
52319;BME280;38258;51.148;14.068;2023-01-30T06:06:51;97697.03;;;-0.50;100.00
52319;BME280;38258;51.148;14.068;2023-01-30T06:09:17;97685.91;;;-0.49;100.00
52319;BME280;38258;51.148;14.068;2023-01-30T06:11:44;97683.38;;;-0.37;100.00
52319;BME280;38258;51.148;14.068;2023-01-30T06:14:10;97685.13;;;-0.36;100.00
52319;BME280;38258;51.148;14.068;2023-01-30T06:16:37;97685.94;;;-0.37;100.00
52319;BME280;38258;51.148;14.068;2023-01-30T06:19:04;97675.66;;;-0.46;100.00
52319;BME280;38258;51.148;14.068;2023-01-30T06:21:31;97693.69;;;-0.27;100.00
52319;BME280;38258;51.148;14.068;2023-01-30T06:23:57;97668.75;;;-0.53;100.00
52319;BME280;38258;51.148;14.068;2023-01-30T06:26:24;97686.84;;;-0.29;100.00
52319;BME280;38258;51.148;14.068;2023-01-30T06:28:50;97671.44;;;-0.29;100.00
52319;BME280;38258;51.148;14.068;2023-01-30T06:31:17;97643.06;;;-0.50;100.00
52319;BME280;38258;51.148;14.068;2023-01-30T06:33:43;97691.16;;;-0.21;100.00
52319;BME280;38258;51.148;14.068;2023-01-30T06:36:11;97685.13;;;-0.23;100.00
52319;BME280;38258;51.148;14.068;2023-01-30T06:38:39;97677.44;;;-0.22;100.00
52319;BME280;38258;51.148;14.068;2023-01-30T06:41:05;97671.44;;;-0.18;100.00
52319;BME280;38258;51.148;14.068;2023-01-30T06:43:32;97664.63;;;-0.17;100.00
52319;BME280;38258;51.148;14.068;2023-01-30T06:45:58;97643.13;;;-0.43;100.00
52319;BME280;38258;51.148;14.068;2023-01-30T06:48:25;97679.19;;;-0.16;100.00
52319;BME280;38258;51.148;14.068;2023-01-30T06:50:51;97676.56;;;-0.22;100.00
52319;BME280;38258;51.148;14.068;2023-01-30T06:53:19;97667.16;;;-0.22;100.00
52319;BME280;38258;51.148;14.068;2023-01-30T06:55:46;97672.28;;;-0.30;100.00
52319;BME280;38258;51.148;14.068;2023-01-30T06:58:13;97660.19;;;-0.54;100.00
52319;BME280;38258;51.148;14.068;2023-01-30T07:00:41;97672.22;;;-0.44;100.00
52319;BME280;38258;51.148;14.068;2023-01-30T07:03:09;97662.75;;;-0.59;100.00
52319;BME280;38258;51.148;14.068;2023-01-30T07:05:37;97666.16;;;-0.60;100.00
52319;BME280;38258;51.148;14.068;2023-01-30T07:08:03;97670.44;;;-0.59;100.00
52319;BME280;38258;51.148;14.068;2023-01-30T07:10:31;97673.00;;;-0.62;100.00
52319;BME280;38258;51.148;14.068;2023-01-30T07:12:58;97667.00;;;-0.65;100.00
52319;BME280;38258;51.148;14.068;2023-01-30T07:15:25;97635.22;;;-0.86;100.00
52319;BME280;38258;51.148;14.068;2023-01-30T07:17:51;97647.22;;;-0.85;100.00
52319;BME280;38258;51.148;14.068;2023-01-30T07:20:18;97655.84;;;-0.72;100.00
52319;BME280;38258;51.148;14.068;2023-01-30T07:22:48;97665.22;;;-0.73;100.00
52319;BME280;38258;51.148;14.068;2023-01-30T07:25:15;97659.25;;;-0.73;100.00
52319;BME280;38258;51.148;14.068;2023-01-30T07:27:49;97653.25;;;-0.75;100.00
52319;BME280;38258;51.148;14.068;2023-01-30T07:30:15;97656.69;;;-0.73;100.00
52319;BME280;38258;51.148;14.068;2023-01-30T07:32:42;97655.00;;;-0.69;100.00
52319;BME280;38258;51.148;14.068;2023-01-30T07:35:09;97588.00;;;-1.11;100.00
52319;BME280;38258;51.148;14.068;2023-01-30T07:37:35;97646.41;;;-0.70;100.00
52319;BME280;38258;51.148;14.068;2023-01-30T07:40:02;97652.38;;;-0.77;100.00
52319;BME280;38258;51.148;14.068;2023-01-30T07:42:29;97643.88;;;-0.68;100.00
52319;BME280;38258;51.148;14.068;2023-01-30T07:44:57;97639.59;;;-0.63;100.00
52319;BME280;38258;51.148;14.068;2023-01-30T07:47:23;97647.34;;;-0.59;100.00
52319;BME280;38258;51.148;14.068;2023-01-30T07:49:50;97650.75;;;-0.57;100.00
52319;BME280;38258;51.148;14.068;2023-01-30T07:52:16;97655.03;;;-0.59;100.00
52319;BME280;38258;51.148;14.068;2023-01-30T07:54:45;97647.38;;;-0.46;100.00
52319;BME280;38258;51.148;14.068;2023-01-30T07:57:11;97641.41;;;-0.37;100.00
52319;BME280;38258;51.148;14.068;2023-01-30T07:59:38;97605.38;;;-0.61;100.00
52319;BME280;38258;51.148;14.068;2023-01-30T08:02:08;97641.44;;;-0.36;100.00
52319;BME280;38258;51.148;14.068;2023-01-30T08:04:34;97643.16;;;-0.35;100.00
52319;BME280;38258;51.148;14.068;2023-01-30T08:07:01;97640.59;;;-0.25;100.00
52319;BME280;38258;51.148;14.068;2023-01-30T08:09:28;97637.16;;;-0.27;100.00
52319;BME280;38258;51.148;14.068;2023-01-30T08:11:54;97638.88;;;-0.36;100.00
52319;BME280;38258;51.148;14.068;2023-01-30T08:14:21;97548.78;;;-0.84;100.00
52319;BME280;38258;51.148;14.068;2023-01-30T08:16:47;97607.94;;;-0.54;100.00
52319;BME280;38258;51.148;14.068;2023-01-30T08:19:17;97623.47;;;-0.19;100.00
52319;BME280;38258;51.148;14.068;2023-01-30T08:21:44;97632.91;;;-0.21;100.00
52319;BME280;38258;51.148;14.068;2023-01-30T08:24:10;97598.59;;;-0.27;100.00
52319;BME280;38258;51.148;14.068;2023-01-30T08:26:37;97625.22;;;-0.08;100.00
52319;BME280;38258;51.148;14.068;2023-01-30T08:29:03;97631.19;;;-0.17;100.00
52319;BME280;38258;51.148;14.068;2023-01-30T08:31:30;97631.22;;;0.02;100.00
52319;BME280;38258;51.148;14.068;2023-01-30T08:33:57;97623.50;;;-0.09;100.00
52319;BME280;38258;51.148;14.068;2023-01-30T08:36:25;97625.22;;;0.03;100.00
52319;BME280;38258;51.148;14.068;2023-01-30T08:38:52;97620.97;;;0.17;100.00
52319;BME280;38258;51.148;14.068;2023-01-30T08:41:18;97626.97;;;0.13;100.00
52319;BME280;38258;51.148;14.068;2023-01-30T08:43:45;97622.66;;;0.07;100.00
52319;BME280;38258;51.148;14.068;2023-01-30T08:46:11;97615.84;;;0.16;100.00
52319;BME280;38258;51.148;14.068;2023-01-30T08:48:38;97614.97;;;0.01;100.00
52319;BME280;38258;51.148;14.068;2023-01-30T08:51:05;97607.25;;;0.04;100.00
52319;BME280;38258;51.148;14.068;2023-01-30T08:53:33;97612.34;;;-0.16;100.00
52319;BME280;38258;51.148;14.068;2023-01-30T08:55:59;97610.63;;;-0.16;100.00
52319;BME280;38258;51.148;14.068;2023-01-30T08:58:26;97612.34;;;-0.10;100.00
52319;BME280;38258;51.148;14.068;2023-01-30T09:00:52;97603.78;;;-0.12;100.00
52319;BME280;38258;51.148;14.068;2023-01-30T09:03:19;97605.50;;;-0.08;100.00
52319;BME280;38258;51.148;14.068;2023-01-30T09:05:45;97604.66;;;0.13;100.00
52319;BME280;38258;51.148;14.068;2023-01-30T09:08:12;97608.09;;;0.11;100.00
52319;BME280;38258;51.148;14.068;2023-01-30T09:10:40;97608.97;;;0.13;100.00
52319;BME280;38258;51.148;14.068;2023-01-30T09:13:07;97596.97;;;0.17;100.00
52319;BME280;38258;51.148;14.068;2023-01-30T09:15:34;97605.53;;;0.22;100.00
52319;BME280;38258;51.148;14.068;2023-01-30T09:18:01;97604.69;;;0.17;100.00
52319;BME280;38258;51.148;14.068;2023-01-30T09:20:27;97606.41;;;0.28;100.00
52319;BME280;38258;51.148;14.068;2023-01-30T09:22:55;97604.66;;;0.34;100.00
52319;BME280;38258;51.148;14.068;2023-01-30T09:25:22;97603.84;;;0.30;100.00
52319;BME280;38258;51.148;14.068;2023-01-30T09:27:50;97596.97;;;0.24;100.00
52319;BME280;38258;51.148;14.068;2023-01-30T09:30:17;97573.81;;;0.12;100.00
52319;BME280;38258;51.148;14.068;2023-01-30T09:32:44;97608.09;;;0.30;100.00
52319;BME280;38258;51.148;14.068;2023-01-30T09:35:10;97566.09;;;0.27;100.00
52319;BME280;38258;51.148;14.068;2023-01-30T09:37:36;97587.53;;;0.42;100.00
52319;BME280;38258;51.148;14.068;2023-01-30T09:40:04;97598.69;;;0.49;100.00
52319;BME280;38258;51.148;14.068;2023-01-30T09:48:16;97572.09;;;0.40;100.00
52319;BME280;38258;51.148;14.068;2023-01-30T09:51:06;97596.94;;;0.63;100.00
52319;BME280;38258;51.148;14.068;2023-01-30T09:53:40;97566.06;;;0.55;100.00
52319;BME280;38258;51.148;14.068;2023-01-30T09:56:15;97578.06;;;0.69;100.00
52319;BME280;38258;51.148;14.068;2023-01-30T09:58:46;97591.78;;;0.66;100.00
52319;BME280;38258;51.148;14.068;2023-01-30T10:01:19;97545.47;;;0.55;100.00
52319;BME280;38258;51.148;14.068;2023-01-30T10:03:57;97580.63;;;0.72;100.00
52319;BME280;38258;51.148;14.068;2023-01-30T10:06:27;97551.50;;;0.59;100.00
52319;BME280;38258;51.148;14.068;2023-01-30T10:09:01;97525.75;;;0.50;100.00
52319;BME280;38258;51.148;14.068;2023-01-30T10:11:43;97563.47;;;0.68;100.00
52319;BME280;38258;51.148;14.068;2023-01-30T10:14:27;97567.75;;;0.72;100.00
52319;BME280;38258;51.148;14.068;2023-01-30T10:17:08;97533.47;;;0.54;100.00
52319;BME280;38258;51.148;14.068;2023-01-30T10:19:57;97563.47;;;0.62;100.00
52319;BME280;38258;51.148;14.068;2023-01-30T10:22:36;97562.59;;;0.75;100.00
52319;BME280;38258;51.148;14.068;2023-01-30T10:25:19;97542.00;;;0.72;100.00
52319;BME280;38258;51.148;14.068;2023-01-30T10:27:52;97570.28;;;0.83;100.00
52319;BME280;38258;51.148;14.068;2023-01-30T10:30:19;97559.13;;;0.93;100.00
52319;BME280;38258;51.148;14.068;2023-01-30T10:32:52;97551.34;;;1.04;100.00
52319;BME280;38258;51.148;14.068;2023-01-30T10:35:22;97563.34;;;1.10;100.00
52319;BME280;38258;51.148;14.068;2023-01-30T10:37:55;97563.34;;;1.16;100.00
52319;BME280;38258;51.148;14.068;2023-01-30T10:40:28;97560.75;;;1.19;100.00
52319;BME280;38258;51.148;14.068;2023-01-30T10:43:01;97558.13;;;1.27;100.00
52319;BME280;38258;51.148;14.068;2023-01-30T10:45:33;97561.56;;;1.24;100.00
52319;BME280;38258;51.148;14.068;2023-01-30T10:48:18;97560.69;;;1.30;100.00
52319;BME280;38258;51.148;14.068;2023-01-30T10:50:51;97528.97;;;1.20;100.00
52319;BME280;38258;51.148;14.068;2023-01-30T10:53:22;97552.13;;;1.28;100.00
52319;BME280;38258;51.148;14.068;2023-01-30T10:55:55;97548.69;;;1.31;100.00
52319;BME280;38258;51.148;14.068;2023-01-30T10:58:30;97553.81;;;1.32;100.00
52319;BME280;38258;51.148;14.068;2023-01-30T11:00:59;97564.09;;;1.37;100.00
52319;BME280;38258;51.148;14.068;2023-01-30T11:03:34;97552.91;;;1.41;100.00
52319;BME280;38258;51.148;14.068;2023-01-30T11:06:05;97463.91;;;0.72;100.00
52319;BME280;38258;51.148;14.068;2023-01-30T11:08:34;97548.63;;;1.41;100.00
52319;BME280;38258;51.148;14.068;2023-01-30T11:11:01;97522.94;;;1.21;100.00
52319;BME280;38258;51.148;14.068;2023-01-30T11:13:45;97549.53;;;1.31;100.00
52319;BME280;38258;51.148;14.068;2023-01-30T11:16:11;97541.00;;;1.12;100.00
52319;BME280;38258;51.148;14.068;2023-01-30T11:18:45;97558.13;;;1.30;100.00
52319;BME280;38258;51.148;14.068;2023-01-30T11:21:19;97558.16;;;1.18;100.00
52319;BME280;38258;51.148;14.068;2023-01-30T11:23:48;97523.09;;;0.89;100.00
52319;BME280;38258;51.148;14.068;2023-01-30T11:26:19;97544.47;;;1.03;100.00
52319;BME280;38258;51.148;14.068;2023-01-30T11:28:46;97562.56;;;0.92;100.00
52319;BME280;38258;51.148;14.068;2023-01-30T11:31:18;97532.59;;;0.68;100.00
52319;BME280;38258;51.148;14.068;2023-01-30T11:33:58;97548.03;;;0.71;100.00
52319;BME280;38258;51.148;14.068;2023-01-30T11:36:27;97537.75;;;0.65;100.00
52319;BME280;38258;51.148;14.068;2023-01-30T11:38:57;97530.84;;;0.73;100.00
52319;BME280;38258;51.148;14.068;2023-01-30T11:41:24;97527.41;;;0.83;100.00
52319;BME280;38258;51.148;14.068;2023-01-30T11:43:58;97531.66;;;0.94;100.00
52319;BME280;38258;51.148;14.068;2023-01-30T11:46:28;97511.09;;;0.81;100.00
52319;BME280;38258;51.148;14.068;2023-01-30T11:49:00;97523.03;;;0.99;100.00
52319;BME280;38258;51.148;14.068;2023-01-30T11:51:28;97502.50;;;0.84;100.00
52319;BME280;38258;51.148;14.068;2023-01-30T11:53:56;97487.06;;;0.81;100.00
52319;BME280;38258;51.148;14.068;2023-01-30T11:56:29;97498.22;;;0.83;100.00
52319;BME280;38258;51.148;14.068;2023-01-30T11:59:01;97520.50;;;0.92;100.00
52319;BME280;38258;51.148;14.068;2023-01-30T12:01:30;97464.03;;;0.51;100.00
52319;BME280;38258;51.148;14.068;2023-01-30T12:03:59;97516.25;;;0.75;100.00
52319;BME280;38258;51.148;14.068;2023-01-30T12:06:29;97505.97;;;0.72;100.00
52319;BME280;38258;51.148;14.068;2023-01-30T12:08:57;97498.28;;;0.66;100.00
52319;BME280;38258;51.148;14.068;2023-01-30T12:11:39;97498.25;;;0.67;100.00
52319;BME280;38258;51.148;14.068;2023-01-30T12:14:17;97494.00;;;0.68;100.00
52319;BME280;38258;51.148;14.068;2023-01-30T12:16:56;97494.81;;;0.78;100.00
52319;BME280;38258;51.148;14.068;2023-01-30T12:19:34;97491.34;;;0.83;100.00
52319;BME280;38258;51.148;14.068;2023-01-30T12:22:14;97481.88;;;0.89;100.00
52319;BME280;38258;51.148;14.068;2023-01-30T12:24:45;97483.56;;;0.93;100.00
52319;BME280;38258;51.148;14.068;2023-01-30T12:27:19;97445.03;;;0.80;100.00
52319;BME280;38258;51.148;14.068;2023-01-30T12:29:54;97476.72;;;0.95;100.00
52319;BME280;38258;51.148;14.068;2023-01-30T12:32:25;97483.56;;;0.94;100.00
52319;BME280;38258;51.148;14.068;2023-01-30T12:34:54;97470.66;;;1.05;100.00
52319;BME280;38258;51.148;14.068;2023-01-30T12:37:41;97469.78;;;1.06;100.00
52319;BME280;38258;51.148;14.068;2023-01-30T12:40:19;97489.53;;;1.04;100.00
52319;BME280;38258;51.148;14.068;2023-01-30T12:43:03;97463.03;;;0.83;100.00
52319;BME280;38258;51.148;14.068;2023-01-30T12:45:35;97471.56;;;0.96;100.00
52319;BME280;38258;51.148;14.068;2023-01-30T12:48:28;97469.84;;;0.92;100.00
52319;BME280;38258;51.148;14.068;2023-01-30T12:51:07;97481.84;;;1.01;100.00
52319;BME280;38258;51.148;14.068;2023-01-30T12:53:42;97474.13;;;0.98;100.00
52319;BME280;38258;51.148;14.068;2023-01-30T12:56:16;97465.53;;;1.04;100.00
52319;BME280;38258;51.148;14.068;2023-01-30T12:58:50;97469.81;;;1.03;100.00
52319;BME280;38258;51.148;14.068;2023-01-30T13:01:24;97434.66;;;0.93;100.00
52319;BME280;38258;51.148;14.068;2023-01-30T13:04:00;97459.47;;;1.06;100.00
52319;BME280;38258;51.148;14.068;2023-01-30T13:06:42;97456.03;;;1.07;100.00
52319;BME280;38258;51.148;14.068;2023-01-30T13:09:22;97461.22;;;1.06;100.00